createdAt,value
2022-09-23T00:01:26.677Z,24.20
2022-09-23T00:03:56.360Z,24.67
2022-09-23T00:06:25.443Z,23.10
2022-09-23T00:08:53.834Z,24.13
2022-09-23T00:11:23.656Z,23.10
2022-09-23T00:13:54.525Z,26.23
2022-09-23T00:16:25.022Z,24.27
2022-09-23T00:18:53.378Z,22.97
2022-09-23T00:21:25.127Z,23.23
2022-09-23T00:23:53.312Z,22.50
2022-09-23T00:26:23.886Z,23.80
2022-09-23T00:28:52.576Z,24.60
2022-09-23T00:31:23.287Z,27.57
2022-09-23T00:33:55.146Z,24.23
2022-09-23T00:36:25.350Z,25.83
2022-09-23T00:38:54.327Z,25.07
2022-09-23T00:41:22.874Z,24.37
2022-09-23T00:43:53.570Z,23.23
2022-09-23T00:46:25.632Z,26.13
2022-09-23T00:48:59.154Z,24.23
2022-09-23T00:51:33.504Z,26.50
2022-09-23T00:54:02.617Z,24.30
2022-09-23T00:56:32.386Z,26.00
2022-09-23T00:59:02.109Z,24.27
2022-09-23T01:01:30.204Z,24.67
2022-09-23T01:03:59.353Z,23.57
2022-09-23T01:06:29.422Z,24.57
2022-09-23T01:08:57.450Z,25.57
2022-09-23T01:11:41.250Z,24.93
2022-09-23T01:14:32.098Z,23.77
2022-09-23T01:17:07.345Z,25.83
2022-09-23T01:20:03.752Z,27.50
2022-09-23T01:22:37.666Z,25.13
2022-09-23T01:25:25.481Z,25.63
2022-09-23T01:28:09.252Z,25.30
2022-09-23T01:30:47.165Z,26.03
2022-09-23T01:33:28.411Z,27.43
2022-09-23T01:36:09.994Z,26.40
2022-09-23T01:38:45.017Z,26.20
2022-09-23T01:41:35.326Z,25.93
2022-09-23T01:44:08.809Z,25.60
2022-09-23T01:46:43.371Z,26.60
2022-09-23T01:49:18.674Z,27.37
2022-09-23T01:51:52.016Z,27.43
2022-09-23T01:54:25.907Z,26.03
2022-09-23T01:56:59.353Z,26.17
2022-09-23T01:59:33.916Z,27.50
2022-09-23T02:02:09.544Z,26.90
2022-09-23T02:04:45.600Z,25.60
2022-09-23T02:07:20.694Z,26.73
2022-09-23T02:09:54.994Z,28.33
2022-09-23T02:12:27.108Z,27.93
2022-09-23T02:15:03.159Z,27.13
2022-09-23T02:17:39.698Z,26.70
2022-09-23T02:20:10.433Z,25.70
2022-09-23T02:22:41.950Z,27.73
2022-09-23T02:25:12.450Z,26.77
2022-09-23T02:27:45.690Z,29.20
2022-09-23T02:30:16.286Z,28.57
2022-09-23T02:32:55.213Z,27.97
2022-09-23T02:35:32.854Z,29.30
2022-09-23T02:38:20.975Z,28.40
2022-09-23T02:40:58.717Z,28.43
2022-09-23T02:43:35.589Z,26.13
2022-09-23T02:46:04.701Z,26.57
2022-09-23T02:48:46.479Z,29.77
2022-09-23T02:51:14.730Z,29.07
2022-09-23T02:53:43.063Z,27.37
2022-09-23T02:56:16.110Z,31.43
2022-09-23T02:58:46.900Z,27.60
2022-09-23T03:01:26.247Z,28.10
2022-09-23T03:04:10.048Z,27.70
2022-09-23T03:06:51.615Z,27.40
2022-09-23T03:09:23.836Z,27.50
2022-09-23T03:12:01.310Z,27.87
2022-09-23T03:14:39.417Z,25.97
2022-09-23T03:17:14.065Z,28.73
2022-09-23T03:19:49.486Z,27.53
2022-09-23T03:22:22.527Z,26.63
2022-09-23T03:24:54.118Z,28.30
2022-09-23T03:27:27.050Z,26.37
2022-09-23T03:29:56.330Z,27.67
2022-09-23T03:32:27.966Z,25.37
2022-09-23T03:35:01.690Z,28.70
2022-09-23T03:37:34.204Z,27.97
2022-09-23T03:40:08.266Z,25.87
2022-09-23T03:42:38.821Z,27.77
2022-09-23T03:45:13.331Z,28.00
2022-09-23T03:47:42.243Z,29.60
2022-09-23T03:50:13.229Z,28.90
2022-09-23T03:52:41.440Z,28.30
2022-09-23T03:55:10.202Z,28.57
2022-09-23T03:57:38.318Z,31.10
2022-09-23T04:00:07.574Z,29.17
2022-09-23T04:02:36.203Z,28.67
2022-09-23T04:05:04.630Z,28.33
2022-09-23T04:07:34.109Z,29.27
2022-09-23T04:10:02.155Z,28.27
2022-09-23T04:12:30.119Z,29.83
2022-09-23T04:14:58.106Z,31.03
2022-09-23T04:17:26.093Z,28.43
2022-09-23T04:19:54.244Z,29.77
2022-09-23T04:22:22.385Z,30.30
2022-09-23T04:24:52.058Z,30.23
2022-09-23T04:27:20.064Z,28.33
2022-09-23T04:29:48.146Z,28.47
2022-09-23T04:32:16.172Z,30.47
2022-09-23T04:34:44.213Z,28.47
2022-09-23T04:37:12.190Z,30.07
2022-09-23T04:39:40.227Z,28.73
2022-09-23T04:42:09.755Z,30.37
2022-09-23T04:44:38.933Z,29.50
2022-09-23T04:47:07.573Z,30.77
2022-09-23T04:49:35.578Z,34.40
2022-09-23T04:52:05.381Z,33.27
2022-09-23T04:54:33.452Z,35.60
2022-09-23T04:57:01.713Z,34.33
2022-09-23T04:59:31.257Z,32.50
2022-09-23T05:01:59.322Z,34.93
2022-09-23T05:04:27.393Z,34.00
2022-09-23T05:06:57.464Z,34.03
2022-09-23T05:09:28.862Z,33.10
2022-09-23T05:11:56.897Z,32.73
2022-09-23T05:14:24.903Z,33.23
2022-09-23T05:16:54.303Z,35.80
2022-09-23T05:19:22.968Z,32.67
2022-09-23T05:21:51.017Z,29.87
2022-09-23T05:24:19.246Z,31.97
2022-09-23T05:26:47.479Z,32.17
2022-09-23T05:29:15.662Z,32.67
2022-09-23T05:31:43.746Z,30.10
2022-09-23T05:34:13.122Z,30.17
2022-09-23T05:36:41.222Z,29.40
2022-09-23T05:39:09.394Z,28.03
2022-09-23T05:41:38.236Z,27.90
2022-09-23T05:44:06.429Z,26.50
2022-09-23T05:46:35.147Z,28.93
2022-09-23T05:49:04.334Z,25.27
2022-09-23T05:51:35.667Z,25.60
2022-09-23T05:54:04.309Z,24.80
2022-09-23T05:56:34.357Z,24.87
2022-09-23T05:59:03.363Z,27.20
2022-09-23T06:01:33.987Z,29.00
2022-09-23T06:04:04.050Z,25.40
2022-09-23T06:06:38.124Z,24.47
2022-09-23T06:09:07.674Z,24.60
2022-09-23T06:11:37.181Z,24.33
2022-09-23T06:14:05.630Z,23.80
2022-09-23T06:16:36.511Z,23.07
2022-09-23T06:19:07.056Z,23.67
2022-09-23T06:21:38.011Z,23.67
2022-09-23T06:24:07.193Z,23.63
2022-09-23T06:26:36.342Z,22.03
2022-09-23T06:29:05.690Z,21.10
2022-09-23T06:31:34.021Z,19.73
2022-09-23T06:34:10.539Z,18.43
2022-09-23T06:36:44.319Z,18.27
2022-09-23T06:39:12.798Z,19.00
2022-09-23T06:41:41.993Z,18.17
2022-09-23T06:44:10.070Z,16.93
2022-09-23T06:46:38.249Z,17.60
2022-09-23T06:49:06.337Z,17.40
2022-09-23T06:51:34.441Z,15.90
2022-09-23T06:54:04.016Z,19.00
2022-09-23T06:56:36.345Z,15.13
2022-09-23T06:59:06.776Z,14.53
2022-09-23T07:01:34.851Z,15.40
2022-09-23T07:04:04.140Z,14.40
2022-09-23T07:06:32.175Z,14.40
2022-09-23T07:09:00.981Z,18.43
2022-09-23T07:11:30.566Z,12.70
2022-09-23T07:13:58.817Z,12.20
2022-09-23T07:16:27.125Z,13.67
2022-09-23T07:18:55.771Z,14.73
2022-09-23T07:21:23.844Z,13.80
2022-09-23T07:23:52.197Z,14.63
2022-09-23T07:26:21.418Z,13.97
2022-09-23T07:28:55.677Z,13.20
2022-09-23T07:31:35.067Z,12.70
2022-09-23T07:34:06.907Z,12.77
2022-09-23T07:36:37.291Z,12.47
2022-09-23T07:39:05.994Z,12.70
2022-09-23T07:41:35.483Z,12.23
2022-09-23T07:44:12.586Z,12.90
2022-09-23T07:46:41.196Z,11.37
2022-09-23T07:49:10.552Z,12.20
2022-09-23T07:51:40.282Z,12.10
2022-09-23T07:54:11.077Z,11.20
2022-09-23T07:56:40.158Z,12.10
2022-09-23T07:59:12.696Z,12.60
2022-09-23T08:01:42.749Z,9.80
2022-09-23T08:04:14.456Z,10.23
2022-09-23T08:06:43.495Z,9.77
2022-09-23T08:09:12.028Z,10.23
2022-09-23T08:11:42.065Z,9.63
2022-09-23T08:14:13.620Z,9.57
2022-09-23T08:16:42.184Z,9.40
2022-09-23T08:19:10.481Z,9.23
2022-09-23T08:21:39.278Z,10.43
2022-09-23T08:24:07.614Z,10.10
2022-09-23T08:26:38.414Z,9.73
2022-09-23T08:29:09.775Z,8.90
2022-09-23T08:31:39.179Z,9.27
2022-09-23T08:34:07.768Z,9.73
2022-09-23T08:36:36.619Z,9.90
2022-09-23T08:39:05.199Z,8.70
2022-09-23T08:41:41.608Z,8.33
2022-09-23T08:44:14.853Z,9.60
2022-09-23T08:46:52.642Z,7.40
2022-09-23T08:49:26.773Z,8.80
2022-09-23T08:51:57.349Z,8.10
2022-09-23T08:54:28.771Z,6.90
2022-09-23T08:56:59.598Z,6.30
2022-09-23T08:59:36.991Z,6.53
2022-09-23T09:02:16.637Z,6.90
2022-09-23T09:04:47.254Z,5.10
2022-09-23T09:07:37.463Z,5.07
2022-09-23T09:10:12.226Z,5.17
2022-09-23T09:12:44.305Z,4.60
2022-09-23T09:15:16.586Z,3.57
2022-09-23T09:17:54.580Z,4.13
2022-09-23T09:20:30.889Z,3.87
2022-09-23T09:23:00.824Z,2.67
2022-09-23T09:25:40.926Z,2.57
2022-09-23T09:28:16.676Z,2.57
2022-09-23T09:30:48.497Z,2.80
2022-09-23T09:33:22.030Z,3.00
2022-09-23T09:36:09.082Z,2.60
2022-09-23T09:38:37.592Z,3.60
2022-09-23T09:41:14.216Z,2.77
2022-09-23T09:43:45.006Z,4.00
2022-09-23T09:46:29.412Z,4.00
2022-09-23T09:49:03.573Z,5.07
2022-09-23T09:51:31.590Z,5.13
2022-09-23T09:54:18.586Z,5.03
2022-09-23T09:59:23.151Z,6.20
2022-09-23T10:01:51.707Z,4.40
2022-09-23T10:04:36.013Z,3.37
2022-09-23T10:07:09.803Z,3.40
2022-09-23T10:09:39.542Z,3.20
2022-09-23T10:12:18.586Z,3.07
2022-09-23T10:14:50.542Z,2.83
2022-09-23T10:17:22.742Z,2.37
2022-09-23T10:20:00.790Z,3.53
2022-09-23T10:22:39.749Z,2.10
2022-09-23T10:25:10.468Z,2.70
2022-09-23T10:27:38.857Z,3.20
2022-09-23T10:30:21.644Z,3.83
2022-09-23T10:32:51.105Z,4.80
2022-09-23T10:35:22.612Z,3.10
2022-09-23T10:37:52.862Z,3.00
2022-09-23T10:40:49.822Z,2.80
2022-09-23T10:43:46.341Z,2.80
2022-09-23T10:46:37.953Z,2.73
2022-09-23T10:49:32.437Z,2.60
2022-09-23T10:52:16.141Z,2.73
2022-09-23T10:54:55.697Z,2.77
2022-09-23T10:57:40.767Z,2.13
2022-09-23T11:00:27.043Z,2.40
2022-09-23T11:03:18.565Z,1.87
2022-09-23T11:05:58.070Z,2.37
2022-09-23T11:08:51.784Z,1.80
2022-09-23T11:11:29.937Z,1.70
2022-09-23T11:14:25.400Z,2.10
2022-09-23T11:17:14.738Z,1.80
2022-09-23T11:20:01.951Z,2.87
2022-09-23T11:22:41.716Z,1.80
2022-09-23T11:25:31.769Z,2.00
2022-09-23T11:28:18.757Z,1.60
2022-09-23T11:30:58.061Z,1.63
2022-09-23T11:33:39.294Z,3.20
2022-09-23T11:36:12.406Z,1.00
2022-09-23T11:38:44.095Z,1.27
2022-09-23T11:41:19.123Z,1.37
2022-09-23T11:43:52.556Z,1.53
2022-09-23T11:46:31.539Z,1.87
2022-09-23T11:49:08.836Z,1.77
2022-09-23T11:51:43.573Z,1.70
2022-09-23T11:54:20.526Z,1.67
2022-09-23T11:56:54.866Z,1.70
2022-09-23T11:59:39.478Z,2.40
2022-09-23T12:02:22.297Z,2.93
2022-09-23T12:05:01.285Z,2.70
2022-09-23T12:07:43.490Z,3.13
2022-09-23T12:10:12.851Z,2.37
2022-09-23T12:12:48.902Z,2.33
2022-09-23T12:15:31.781Z,2.20
2022-09-23T12:18:26.985Z,2.03
2022-09-23T12:21:38.771Z,3.57
2022-09-23T12:24:38.653Z,2.67
2022-09-23T12:27:11.488Z,2.07
2022-09-23T12:29:42.729Z,1.77
2022-09-23T12:32:18.692Z,1.80
2022-09-23T12:34:51.982Z,1.83
2022-09-23T12:37:27.771Z,3.67
2022-09-23T12:40:01.524Z,2.07
2022-09-23T12:42:31.310Z,1.60
2022-09-23T12:45:40.982Z,1.30
2022-09-23T12:48:44.099Z,1.67
2022-09-23T12:51:20.932Z,1.83
2022-09-23T12:54:22.302Z,1.60
2022-09-23T12:57:04.977Z,2.93
2022-09-23T12:59:54.367Z,1.20
2022-09-23T13:02:31.033Z,2.87
2022-09-23T13:05:28.865Z,2.50
2022-09-23T13:08:03.971Z,1.80
2022-09-23T13:10:35.318Z,1.77
2022-09-23T13:13:03.880Z,2.87
2022-09-23T13:15:34.712Z,2.47
2022-09-23T13:18:39.155Z,1.67
2022-09-23T13:21:17.953Z,1.47
2022-09-23T13:24:20.839Z,2.60
2022-09-23T13:26:51.305Z,1.90
2022-09-23T13:29:24.438Z,2.93
2022-09-23T13:31:53.554Z,2.27
2022-09-23T13:34:24.674Z,2.00
2022-09-23T13:36:54.385Z,2.10
2022-09-23T13:39:25.846Z,2.07
2022-09-23T13:41:56.992Z,2.40
2022-09-23T13:44:25.067Z,1.80
2022-09-23T13:46:56.834Z,3.23
2022-09-23T13:49:28.379Z,1.73
2022-09-23T13:51:58.475Z,2.43
2022-09-23T13:54:32.062Z,2.20
2022-09-23T13:57:00.698Z,3.17
2022-09-23T13:59:30.627Z,2.60
2022-09-23T14:02:06.057Z,2.43
2022-09-23T14:04:34.149Z,2.60
2022-09-23T14:07:04.681Z,1.63
2022-09-23T14:09:33.595Z,1.70
2022-09-23T14:12:03.119Z,2.57
2022-09-23T14:14:31.996Z,1.90
2022-09-23T14:17:00.507Z,2.07
2022-09-23T14:19:28.653Z,3.37
2022-09-23T14:21:57.575Z,2.83
2022-09-23T14:24:32.895Z,2.30
2022-09-23T14:27:15.163Z,2.10
2022-09-23T14:29:47.578Z,2.90
2022-09-23T14:32:20.955Z,2.90
2022-09-23T14:34:52.131Z,3.63
2022-09-23T14:37:50.925Z,2.97
2022-09-23T14:40:22.502Z,3.70
2022-09-23T14:42:52.876Z,1.97
2022-09-23T14:45:23.764Z,2.67
2022-09-23T14:47:55.049Z,1.70
2022-09-23T14:50:42.819Z,5.47
2022-09-23T14:53:40.428Z,2.20
2022-09-23T14:56:16.850Z,2.23
2022-09-23T14:58:52.905Z,3.07
2022-09-23T15:01:39.044Z,2.30
2022-09-23T15:04:14.117Z,4.10
2022-09-23T15:06:46.582Z,3.73
2022-09-23T15:09:23.958Z,4.67
2022-09-23T15:11:59.373Z,3.47
2022-09-23T15:14:39.166Z,2.20
2022-09-23T15:17:23.807Z,2.33
2022-09-23T15:19:56.566Z,2.70
2022-09-23T15:22:28.436Z,2.67
2022-09-23T15:25:09.697Z,2.20
2022-09-23T15:27:39.180Z,2.30
2022-09-23T15:30:18.069Z,3.30
2022-09-23T15:32:47.262Z,3.33
2022-09-23T15:35:16.478Z,1.77
2022-09-23T15:37:44.901Z,2.53
2022-09-23T15:40:19.543Z,1.70
2022-09-23T15:42:51.467Z,2.07
2022-09-23T15:45:22.002Z,2.83
2022-09-23T15:47:52.274Z,2.07
2022-09-23T15:50:20.732Z,1.93
2022-09-23T15:52:48.904Z,1.80
2022-09-23T15:55:19.083Z,2.50
2022-09-23T15:57:48.464Z,2.67
2022-09-23T16:00:17.256Z,3.00
2022-09-23T16:02:48.328Z,3.10
2022-09-23T16:05:23.858Z,2.53
2022-09-23T16:07:53.378Z,2.57
2022-09-23T16:10:23.205Z,6.23
2022-09-23T16:12:54.476Z,13.57
2022-09-23T16:15:24.237Z,13.00
2022-09-23T16:17:52.330Z,18.60
2022-09-23T16:20:22.432Z,16.27
2022-09-23T16:22:54.728Z,15.90
2022-09-23T16:25:25.302Z,13.27
2022-09-23T16:27:57.427Z,11.13
2022-09-23T16:30:26.327Z,10.77
2022-09-23T16:32:54.753Z,7.70
2022-09-23T16:35:23.922Z,8.63
2022-09-23T16:37:52.942Z,6.00
2022-09-23T16:40:23.398Z,7.30
2022-09-23T16:42:54.877Z,7.53
2022-09-23T16:45:24.124Z,6.83
2022-09-23T16:47:53.027Z,5.17
2022-09-23T16:50:23.723Z,5.47
2022-09-23T16:52:54.771Z,4.63
2022-09-23T16:55:27.330Z,6.53
2022-09-23T16:57:57.076Z,7.00
2022-09-23T17:00:43.119Z,5.77
2022-09-23T17:03:31.486Z,5.80
2022-09-23T17:06:03.420Z,6.07
2022-09-23T17:08:34.250Z,5.67
2022-09-23T17:11:02.997Z,5.30
2022-09-23T17:13:32.483Z,5.30
2022-09-23T17:16:00.864Z,5.10
2022-09-23T17:18:29.678Z,5.60
2022-09-23T17:20:59.662Z,5.00
2022-09-23T17:23:28.287Z,6.33
2022-09-23T17:25:56.381Z,6.90
2022-09-23T17:28:25.300Z,7.97
2022-09-23T17:30:58.979Z,9.87
2022-09-23T17:33:28.208Z,10.80
2022-09-23T17:35:57.800Z,9.00
2022-09-23T17:38:29.078Z,9.50
2022-09-23T17:41:01.205Z,10.73
2022-09-23T17:43:31.691Z,13.20
2022-09-23T17:46:06.668Z,14.93
2022-09-23T17:48:36.634Z,15.97
2022-09-23T17:51:07.206Z,16.20
2022-09-23T17:53:38.081Z,14.90
2022-09-23T17:56:08.595Z,19.13
2022-09-23T17:58:38.190Z,19.50
2022-09-23T18:01:10.974Z,21.20
2022-09-23T18:03:39.550Z,17.10
2022-09-23T18:06:13.042Z,14.53
2022-09-23T18:08:42.637Z,21.77
2022-09-23T18:11:19.207Z,23.13
2022-09-23T18:13:52.540Z,22.40
2022-09-23T18:16:23.699Z,19.37
2022-09-23T18:18:52.817Z,16.60
2022-09-23T18:21:21.121Z,14.33
2022-09-23T18:23:49.239Z,12.20
2022-09-23T18:26:18.263Z,12.40
2022-09-23T18:28:48.010Z,12.67
2022-09-23T18:31:17.456Z,12.60
2022-09-23T18:33:50.090Z,13.43
2022-09-23T18:36:18.481Z,15.03
2022-09-23T18:38:47.282Z,12.87
2022-09-23T18:41:15.988Z,12.87
2022-09-23T18:43:48.683Z,12.80
2022-09-23T18:46:19.631Z,11.77
2022-09-23T18:49:08.414Z,13.17
2022-09-23T18:51:38.728Z,13.80
2022-09-23T18:54:09.373Z,13.23
2022-09-23T18:56:41.970Z,13.40
2022-09-23T18:59:14.045Z,13.37
2022-09-23T19:01:42.266Z,14.83
2022-09-23T19:04:11.759Z,13.00
2022-09-23T19:06:40.057Z,15.30
2022-09-23T19:09:08.714Z,14.93
2022-09-23T19:11:37.289Z,13.33
2022-09-23T19:14:07.712Z,17.17
2022-09-23T19:16:37.577Z,14.57
2022-09-23T19:19:06.898Z,14.53
2022-09-23T19:21:36.994Z,15.80
2022-09-23T19:24:09.129Z,15.50
2022-09-23T19:26:39.102Z,16.13
2022-09-23T19:29:09.117Z,17.07
2022-09-23T19:31:40.519Z,17.37
2022-09-23T19:34:12.422Z,17.90
2022-09-23T19:36:43.627Z,18.53
2022-09-23T19:39:19.935Z,19.40
2022-09-23T19:41:48.741Z,17.53
2022-09-23T19:44:17.349Z,18.67
2022-09-23T19:46:53.431Z,18.57
2022-09-23T19:49:24.490Z,19.20
2022-09-23T19:51:55.487Z,17.83
2022-09-23T19:54:27.054Z,17.10
2022-09-23T19:56:55.571Z,18.63
2022-09-23T19:59:26.967Z,20.77
2022-09-23T20:01:55.484Z,21.40
2022-09-23T20:04:23.708Z,18.47
2022-09-23T20:06:53.214Z,19.70
2022-09-23T20:09:21.635Z,19.17
2022-09-23T20:11:49.673Z,21.40
2022-09-23T20:14:19.805Z,22.97
2022-09-23T20:16:48.357Z,20.53
2022-09-23T20:19:16.368Z,19.27
2022-09-23T20:21:44.428Z,23.53
2022-09-23T20:24:13.836Z,18.93
2022-09-23T20:26:59.549Z,21.97
2022-09-23T20:29:29.363Z,21.70
2022-09-23T20:31:59.176Z,19.60
2022-09-23T20:34:29.544Z,20.97
2022-09-23T20:36:57.592Z,19.87
2022-09-23T20:39:27.008Z,19.53
2022-09-23T20:41:55.067Z,19.43
2022-09-23T20:44:23.102Z,21.30
2022-09-23T20:46:51.387Z,20.10
2022-09-23T20:49:22.740Z,23.13
2022-09-23T20:51:51.342Z,19.53
2022-09-23T20:54:19.980Z,20.00
2022-09-23T20:56:49.406Z,16.93
2022-09-23T20:59:17.989Z,18.80
2022-09-23T21:01:47.693Z,18.03
2022-09-23T21:04:16.186Z,19.60
2022-09-23T21:06:44.262Z,17.90
2022-09-23T21:09:12.248Z,16.20
2022-09-23T21:11:40.362Z,16.93
2022-09-23T21:14:10.225Z,17.27
2022-09-23T21:16:38.330Z,20.17
2022-09-23T21:19:07.932Z,19.60
2022-09-23T21:21:36.404Z,22.70
2022-09-23T21:24:33.609Z,20.77
2022-09-23T21:26:52.774Z,23.70
2022-09-23T21:29:22.439Z,27.30
2022-09-23T21:31:50.493Z,26.70
2022-09-23T21:34:19.286Z,25.57
2022-09-23T21:36:49.290Z,25.37
2022-09-23T21:39:17.294Z,20.73
2022-09-23T21:41:45.342Z,21.00
2022-09-23T21:44:13.388Z,21.00
2022-09-23T21:46:42.953Z,22.37
2022-09-23T21:49:10.969Z,22.20
2022-09-23T21:51:41.745Z,17.50
2022-09-23T21:54:13.902Z,18.30
2022-09-23T21:56:42.338Z,19.43
2022-09-23T21:59:10.829Z,17.43
2022-09-23T22:01:45.074Z,17.37
2022-09-23T22:04:17.516Z,18.87
2022-09-23T22:06:46.733Z,18.40
2022-09-23T22:09:16.895Z,19.67
2022-09-23T22:12:02.425Z,22.70
2022-09-23T22:14:30.675Z,21.77
2022-09-23T22:17:03.693Z,22.00
2022-09-23T22:19:35.205Z,19.87
2022-09-23T22:22:07.615Z,22.47
2022-09-23T22:24:35.720Z,18.57
2022-09-23T22:27:03.720Z,21.13
2022-09-23T22:29:49.285Z,20.97
2022-09-23T22:32:34.830Z,22.77
2022-09-23T22:35:04.393Z,22.07
2022-09-23T22:37:35.318Z,21.73
2022-09-23T22:40:04.314Z,22.63
2022-09-23T22:42:32.480Z,22.57
2022-09-23T22:45:00.558Z,22.30
2022-09-23T22:47:28.625Z,19.80
2022-09-23T22:49:56.606Z,20.20
2022-09-23T22:52:26.028Z,18.67
2022-09-23T22:54:54.227Z,16.93
2022-09-23T22:57:22.312Z,17.07
2022-09-23T22:59:50.319Z,19.67
2022-09-23T23:02:19.725Z,19.17
2022-09-23T23:04:48.584Z,14.90
2022-09-23T23:07:20.763Z,16.47
2022-09-23T23:09:50.551Z,15.67
2022-09-23T23:12:19.973Z,17.47
2022-09-23T23:14:48.677Z,16.13
2022-09-23T23:17:16.748Z,17.57
2022-09-23T23:19:45.055Z,18.47
2022-09-23T23:22:13.117Z,17.77
2022-09-23T23:24:41.137Z,19.30
2022-09-23T23:27:10.494Z,18.50
2022-09-23T23:29:38.488Z,20.07
2022-09-23T23:32:07.647Z,17.20
2022-09-23T23:34:35.706Z,15.53
2022-09-23T23:37:03.790Z,18.17
2022-09-23T23:39:31.758Z,16.70
2022-09-23T23:42:00.843Z,16.97
2022-09-23T23:44:31.104Z,16.90
2022-09-23T23:46:59.161Z,14.40
2022-09-23T23:49:28.662Z,16.63
2022-09-23T23:51:56.713Z,14.83
2022-09-23T23:54:24.745Z,17.20
2022-09-23T23:56:52.769Z,14.37
2022-09-23T23:59:20.961Z,15.93
